Time;durP1;ratioP1;P1;durP2;ratioP2;P2;SDS_P1;SDS_P2;PMS_P1;PMS_P2;Temp;Humidity;BMP_temperature;BMP_pressure;BME280_temperature;BME280_humidity;BME280_pressure;Samples;Min_cycle;Max_cycle;Signal;HPM_P1;HPM_P2
2022/10/09 00:01:21;;;;;;;9.52;8.70;;;;;;;;;;5027367;28;20222;-68
2022/10/09 00:03:49;;;;;;;9.93;8.85;;;;;;;;;;5028408;28;20264;-69
2022/10/09 00:06:17;;;;;;;11.25;9.45;;;;;;;;;;5025618;28;22240;-69
2022/10/09 00:08:45;;;;;;;13.60;9.18;;;;;;;;;;5025262;28;20263;-68
2022/10/09 00:11:12;;;;;;;11.40;8.40;;;;;;;;;;5026324;28;20268;-69
2022/10/09 00:13:39;;;;;;;8.93;8.20;;;;;;;;;;5026751;28;20287;-68
2022/10/09 00:16:06;;;;;;;12.60;8.43;;;;;;;;;;5025225;28;20268;-71
2022/10/09 00:18:33;;;;;;;8.95;7.57;;;;;;;;;;5027955;28;20207;-69
2022/10/09 00:20:59;;;;;;;9.07;8.32;;;;;;;;;;5027398;28;20221;-68
2022/10/09 00:23:26;;;;;;;9.73;8.73;;;;;;;;;;5027940;28;20210;-69
2022/10/09 00:25:55;;;;;;;10.25;9.18;;;;;;;;;;5025200;28;20286;-68
2022/10/09 00:28:22;;;;;;;14.10;8.15;;;;;;;;;;5027290;28;20308;-68
2022/10/09 00:30:48;;;;;;;12.70;8.90;;;;;;;;;;5025684;28;20273;-68
2022/10/09 00:33:15;;;;;;;12.10;9.40;;;;;;;;;;5027094;28;20385;-68
2022/10/09 00:35:41;;;;;;;8.70;7.78;;;;;;;;;;5026747;28;20648;-68
2022/10/09 00:38:08;;;;;;;8.88;7.93;;;;;;;;;;5028371;28;20306;-68
2022/10/09 00:40:35;;;;;;;9.45;8.48;;;;;;;;;;5025533;28;20202;-69
2022/10/09 00:43:04;;;;;;;11.30;10.13;;;;;;;;;;5025715;28;20218;-69
2022/10/09 00:45:31;;;;;;;11.43;10.23;;;;;;;;;;5025698;28;20230;-69
2022/10/09 00:48:00;;;;;;;10.52;9.45;;;;;;;;;;5027592;28;20206;-69
2022/10/09 00:50:27;;;;;;;12.30;10.65;;;;;;;;;;5027279;28;20276;-68
2022/10/09 00:52:55;;;;;;;10.45;9.38;;;;;;;;;;5028551;28;20595;-70
2022/10/09 00:55:22;;;;;;;16.75;11.48;;;;;;;;;;5029903;28;20206;-69
2022/10/09 00:57:49;;;;;;;12.07;10.65;;;;;;;;;;5031697;28;20268;-70
2022/10/09 01:00:17;;;;;;;18.08;10.55;;;;;;;;;;5032204;28;20248;-69
2022/10/09 01:02:44;;;;;;;20.48;12.13;;;;;;;;;;5031722;28;20305;-68
2022/10/09 01:05:10;;;;;;;13.98;11.50;;;;;;;;;;5028310;28;20226;-69
2022/10/09 01:07:40;;;;;;;12.40;10.45;;;;;;;;;;5030649;28;20340;-69
2022/10/09 01:10:12;;;;;;;13.68;11.07;;;;;;;;;;5030702;28;20207;-68
2022/10/09 01:12:45;;;;;;;13.65;11.13;;;;;;;;;;5030311;28;20201;-69
2022/10/09 01:15:16;;;;;;;18.35;11.32;;;;;;;;;;5032326;28;20264;-69
2022/10/09 01:17:45;;;;;;;14.00;10.70;;;;;;;;;;5029762;28;20219;-69
2022/10/09 01:20:21;;;;;;;13.07;10.82;;;;;;;;;;5029044;28;20207;-69
2022/10/09 01:22:54;;;;;;;15.73;11.80;;;;;;;;;;5027735;28;20735;-69
2022/10/09 01:25:25;;;;;;;13.50;10.38;;;;;;;;;;5029533;28;20324;-68
2022/10/09 01:27:53;;;;;;;14.13;10.88;;;;;;;;;;5029374;28;20206;-70
2022/10/09 01:30:20;;;;;;;24.13;12.18;;;;;;;;;;5028555;28;20669;-69
2022/10/09 01:32:48;;;;;;;17.88;11.68;;;;;;;;;;5030271;28;20226;-69
2022/10/09 01:35:15;;;;;;;13.07;10.88;;;;;;;;;;5028579;28;20206;-70
2022/10/09 01:37:43;;;;;;;13.85;10.95;;;;;;;;;;5030636;28;20195;-69
2022/10/09 01:40:10;;;;;;;13.82;11.43;;;;;;;;;;5029566;28;20202;-69
2022/10/09 01:42:37;;;;;;;13.93;11.80;;;;;;;;;;5029915;28;20214;-69
2022/10/09 01:45:06;;;;;;;14.82;11.93;;;;;;;;;;5028402;28;20229;-69
2022/10/09 01:47:32;;;;;;;15.43;10.95;;;;;;;;;;5026262;28;20206;-69
2022/10/09 01:50:03;;;;;;;15.63;11.55;;;;;;;;;;5027809;28;20768;-70
2022/10/09 01:52:35;;;;;;;14.02;11.65;;;;;;;;;;5030107;28;20583;-70
2022/10/09 01:55:06;;;;;;;13.35;11.23;;;;;;;;;;5026736;28;20775;-69
2022/10/09 01:57:38;;;;;;;15.38;12.02;;;;;;;;;;5032186;28;20198;-69
2022/10/09 02:00:08;;;;;;;12.40;10.73;;;;;;;;;;5030388;28;21520;-70
2022/10/09 02:02:35;;;;;;;11.60;10.50;;;;;;;;;;5029278;28;20207;-69
2022/10/09 02:05:01;;;;;;;12.30;9.90;;;;;;;;;;5028273;28;20276;-70
2022/10/09 02:07:29;;;;;;;11.75;10.32;;;;;;;;;;5029788;28;20280;-70
2022/10/09 02:09:56;;;;;;;11.35;10.27;;;;;;;;;;5030553;28;20306;-70
2022/10/09 02:12:25;;;;;;;12.23;10.23;;;;;;;;;;5029215;28;20252;-70
2022/10/09 02:14:51;;;;;;;12.35;11.02;;;;;;;;;;5029127;28;20234;-71
2022/10/09 02:17:22;;;;;;;13.00;9.68;;;;;;;;;;5030280;28;20253;-71
2022/10/09 02:19:51;;;;;;;11.43;8.50;;;;;;;;;;5027867;28;20206;-70
2022/10/09 02:22:19;;;;;;;10.25;8.50;;;;;;;;;;5028893;28;20238;-70
2022/10/09 02:24:46;;;;;;;10.02;8.98;;;;;;;;;;5025771;28;20458;-64
2022/10/09 02:27:13;;;;;;;9.23;8.32;;;;;;;;;;5028741;28;20214;-64
2022/10/09 02:29:40;;;;;;;7.45;6.78;;;;;;;;;;5028030;28;20884;-64
2022/10/09 02:32:07;;;;;;;10.38;7.20;;;;;;;;;;5030119;28;20335;-62
2022/10/09 02:34:35;;;;;;;10.88;8.65;;;;;;;;;;5028254;28;20202;-64
2022/10/09 02:37:01;;;;;;;9.50;8.02;;;;;;;;;;5029451;28;20202;-64
2022/10/09 02:39:28;;;;;;;17.33;7.55;;;;;;;;;;5030490;28;20205;-63
2022/10/09 02:41:54;;;;;;;12.77;7.78;;;;;;;;;;5027512;28;20206;-62
2022/10/09 02:44:21;;;;;;;13.05;8.05;;;;;;;;;;5027248;28;20868;-63
2022/10/09 02:46:47;;;;;;;9.85;8.50;;;;;;;;;;5026474;28;20264;-64
2022/10/09 02:49:14;;;;;;;10.45;8.35;;;;;;;;;;5027406;28;20645;-63
2022/10/09 02:51:42;;;;;;;11.70;8.25;;;;;;;;;;5027509;28;20234;-64
2022/10/09 02:54:09;;;;;;;9.20;7.97;;;;;;;;;;5027030;28;20716;-64
2022/10/09 02:56:35;;;;;;;10.10;7.68;;;;;;;;;;5027585;28;20206;-66
2022/10/09 02:59:02;;;;;;;9.10;8.20;;;;;;;;;;5030668;28;20206;-64
2022/10/09 03:01:28;;;;;;;9.02;7.32;;;;;;;;;;5029793;28;20272;-63
2022/10/09 03:03:55;;;;;;;14.77;8.07;;;;;;;;;;5027908;28;20360;-63
2022/10/09 03:06:22;;;;;;;8.18;7.35;;;;;;;;;;5027956;28;20325;-64
2022/10/09 03:08:51;;;;;;;7.57;6.88;;;;;;;;;;5029220;28;20584;-63
2022/10/09 03:11:18;;;;;;;10.23;7.93;;;;;;;;;;5026530;28;21078;-61
2022/10/09 03:13:45;;;;;;;10.32;9.07;;;;;;;;;;5029038;28;20260;-64
2022/10/09 03:16:12;;;;;;;8.63;7.82;;;;;;;;;;5026593;28;20295;-62
2022/10/09 03:18:39;;;;;;;10.32;8.05;;;;;;;;;;5027686;28;20260;-65
2022/10/09 03:21:06;;;;;;;12.52;8.13;;;;;;;;;;5028382;28;20280;-63
2022/10/09 03:23:33;;;;;;;10.70;8.43;;;;;;;;;;5026406;28;20300;-63
2022/10/09 03:26:01;;;;;;;12.27;7.93;;;;;;;;;;5026927;28;20947;-62
2022/10/09 03:28:28;;;;;;;8.95;8.05;;;;;;;;;;5027437;28;20229;-62
2022/10/09 03:30:55;;;;;;;10.43;8.23;;;;;;;;;;5026743;28;20263;-63
2022/10/09 03:33:22;;;;;;;9.93;8.85;;;;;;;;;;5027080;28;20400;-62
2022/10/09 03:35:49;;;;;;;11.63;8.55;;;;;;;;;;5025788;28;20229;-63
2022/10/09 03:38:16;;;;;;;11.18;9.93;;;;;;;;;;5028891;28;20267;-63
2022/10/09 03:40:43;;;;;;;12.18;9.07;;;;;;;;;;5026229;28;20272;-64
2022/10/09 03:43:10;;;;;;;10.48;9.43;;;;;;;;;;5027165;28;20271;-65
2022/10/09 03:45:39;;;;;;;8.98;8.07;;;;;;;;;;5025766;28;21280;-64
2022/10/09 03:48:05;;;;;;;12.95;9.30;;;;;;;;;;5027007;28;20257;-64
2022/10/09 03:50:32;;;;;;;9.77;8.98;;;;;;;;;;5027771;28;20256;-62
2022/10/09 03:52:58;;;;;;;8.95;8.02;;;;;;;;;;5028336;28;20287;-62
2022/10/09 03:55:25;;;;;;;10.48;8.07;;;;;;;;;;5027310;28;20203;-63
2022/10/09 03:57:51;;;;;;;14.52;9.13;;;;;;;;;;5025951;28;20862;-64
2022/10/09 04:00:19;;;;;;;9.30;8.55;;;;;;;;;;5028031;28;20739;-63
2022/10/09 04:02:46;;;;;;;9.38;8.40;;;;;;;;;;5027180;28;20214;-65
2022/10/09 04:05:12;;;;;;;11.25;7.93;;;;;;;;;;5027689;28;20284;-65
2022/10/09 04:07:39;;;;;;;9.32;8.52;;;;;;;;;;5025729;28;20336;-65
2022/10/09 04:10:06;;;;;;;11.23;8.73;;;;;;;;;;5027464;28;20286;-65
2022/10/09 04:12:32;;;;;;;10.32;9.10;;;;;;;;;;5027884;28;20199;-65
2022/10/09 04:14:59;;;;;;;15.02;9.98;;;;;;;;;;5027284;28;20198;-64
2022/10/09 04:17:28;;;;;;;10.40;9.48;;;;;;;;;;5024691;28;21039;-64
2022/10/09 04:19:54;;;;;;;12.20;10.02;;;;;;;;;;5026944;28;20309;-65
2022/10/09 04:22:20;;;;;;;12.65;10.25;;;;;;;;;;5027260;28;20230;-64
2022/10/09 04:24:47;;;;;;;21.77;11.93;;;;;;;;;;5025211;28;20206;-65
2022/10/09 04:27:14;;;;;;;14.15;12.68;;;;;;;;;;5026184;28;20234;-64
2022/10/09 04:29:40;;;;;;;12.60;11.32;;;;;;;;;;5028141;28;20206;-64
2022/10/09 04:32:07;;;;;;;14.25;11.32;;;;;;;;;;5033032;28;20719;-64
2022/10/09 04:34:34;;;;;;;16.90;12.50;;;;;;;;;;5034298;28;20207;-64
2022/10/09 04:37:01;;;;;;;16.30;13.25;;;;;;;;;;5031843;28;20210;-63
2022/10/09 04:39:27;;;;;;;21.27;12.75;;;;;;;;;;5031753;28;20271;-64
2022/10/09 04:41:54;;;;;;;12.63;11.13;;;;;;;;;;5032540;28;20287;-63
2022/10/09 04:44:20;;;;;;;13.68;9.82;;;;;;;;;;5031716;28;20259;-64
2022/10/09 04:46:49;;;;;;;15.60;10.15;;;;;;;;;;5033098;28;20225;-64
2022/10/09 04:49:16;;;;;;;17.77;9.30;;;;;;;;;;5030958;28;21082;-63
2022/10/09 04:51:44;;;;;;;12.48;7.97;;;;;;;;;;5030257;28;21054;-64
2022/10/09 04:54:10;;;;;;;17.42;9.13;;;;;;;;;;5031955;28;20198;-64
2022/10/09 04:56:37;;;;;;;20.63;10.02;;;;;;;;;;5031327;28;20229;-63
2022/10/09 04:59:04;;;;;;;15.38;9.30;;;;;;;;;;5031797;28;20701;-63
2022/10/09 05:01:30;;;;;;;17.42;9.70;;;;;;;;;;5031941;28;20230;-64
2022/10/09 05:03:57;;;;;;;21.67;9.18;;;;;;;;;;5032886;28;20210;-64
2022/10/09 05:06:24;;;;;;;18.35;10.52;;;;;;;;;;5033523;28;21279;-64
2022/10/09 05:08:53;;;;;;;22.50;11.55;;;;;;;;;;5031497;28;21794;-63
2022/10/09 05:11:21;;;;;;;24.38;10.88;;;;;;;;;;5032718;28;20202;-63
2022/10/09 05:13:48;;;;;;;21.17;9.88;;;;;;;;;;5033600;28;20224;-64
2022/10/09 05:16:16;;;;;;;28.02;10.98;;;;;;;;;;5033844;28;20190;-63
2022/10/09 05:18:43;;;;;;;30.98;10.45;;;;;;;;;;5032900;28;20294;-62
2022/10/09 05:21:10;;;;;;;19.05;11.05;;;;;;;;;;5034067;28;20965;-65
2022/10/09 05:23:36;;;;;;;31.42;11.15;;;;;;;;;;5033033;28;20198;-63
2022/10/09 05:26:05;;;;;;;26.60;11.55;;;;;;;;;;5034429;28;20284;-64
2022/10/09 05:28:32;;;;;;;14.45;10.70;;;;;;;;;;5032107;28;20206;-62
2022/10/09 05:30:58;;;;;;;22.85;11.90;;;;;;;;;;5032621;28;20291;-64
2022/10/09 05:33:25;;;;;;;19.50;11.68;;;;;;;;;;5032762;28;20295;-66
2022/10/09 05:35:52;;;;;;;32.65;12.10;;;;;;;;;;5033826;28;20226;-63
2022/10/09 05:38:19;;;;;;;15.43;9.93;;;;;;;;;;5032937;28;20202;-63
2022/10/09 05:40:52;;;;;;;17.92;10.30;;;;;;;;;;5030792;28;21145;-62
2022/10/09 05:43:20;;;;;;;18.60;11.20;;;;;;;;;;5026423;28;20264;-62
2022/10/09 05:45:47;;;;;;;13.05;9.77;;;;;;;;;;5029337;28;20256;-64
2022/10/09 05:48:13;;;;;;;17.50;10.55;;;;;;;;;;5025805;28;20206;-64
2022/10/09 05:50:40;;;;;;;12.20;9.55;;;;;;;;;;5028708;28;20234;-65
2022/10/09 05:53:06;;;;;;;11.55;10.18;;;;;;;;;;5030634;28;20260;-64
2022/10/09 05:55:33;;;;;;;18.02;11.10;;;;;;;;;;5031163;28;20205;-63
2022/10/09 05:57:59;;;;;;;23.75;9.98;;;;;;;;;;5029159;28;20217;-65
2022/10/09 06:00:27;;;;;;;12.90;9.73;;;;;;;;;;5028167;28;20226;-62
2022/10/09 06:02:54;;;;;;;15.13;9.77;;;;;;;;;;5029507;28;20210;-62
2022/10/09 06:05:20;;;;;;;16.05;9.70;;;;;;;;;;5028890;28;20216;-66
2022/10/09 06:07:47;;;;;;;11.43;10.23;;;;;;;;;;5030185;28;20245;-63
2022/10/09 06:10:14;;;;;;;11.38;9.48;;;;;;;;;;5029970;28;20752;-64
2022/10/09 06:12:40;;;;;;;11.20;9.15;;;;;;;;;;5027803;28;20214;-64
2022/10/09 06:15:07;;;;;;;9.07;8.32;;;;;;;;;;5029680;28;20203;-64
2022/10/09 06:17:35;;;;;;;8.95;8.15;;;;;;;;;;5029726;28;20199;-63
2022/10/09 06:20:02;;;;;;;10.13;8.43;;;;;;;;;;5028079;28;20260;-63
2022/10/09 06:22:28;;;;;;;12.52;8.90;;;;;;;;;;5026875;28;20202;-63
2022/10/09 06:24:55;;;;;;;13.98;8.25;;;;;;;19.07;nan;95598.38;5028007;28;20299;-63
2022/10/09 06:27:21;;;;;;;11.25;8.73;;;;;;;;;;5029296;28;20719;-64
2022/10/09 06:29:48;;;;;;;10.20;9.23;;;;;;;;;;5030074;28;20206;-65
2022/10/09 06:32:14;;;;;;;10.73;9.40;;;;;;;;;;5029620;28;20242;-65
2022/10/09 06:34:42;;;;;;;11.20;10.13;;;;;;;;;;5029611;28;20234;-64
2022/10/09 06:37:08;;;;;;;15.90;10.02;;;;;;;;;;5028323;28;20198;-67
2022/10/09 06:39:35;;;;;;;10.25;8.93;;;;;;;;;;5029262;28;20684;-62
2022/10/09 06:42:02;;;;;;;11.20;9.07;;;;;;;;;;5029985;28;20210;-64
2022/10/09 06:44:29;;;;;;;11.95;9.15;;;;;;;;;;5028615;28;20291;-65
2022/10/09 06:46:56;;;;;;;10.90;8.10;;;;;;;;;;5031557;28;20291;-64
2022/10/09 06:49:22;;;;;;;8.38;7.68;;;;;;;;;;5027266;28;20602;-65
2022/10/09 06:51:50;;;;;;;14.07;8.40;;;;;;;;;;5028311;28;20273;-66
2022/10/09 06:54:17;;;;;;;12.93;8.57;;;;;;;;;;5028522;28;20272;-63
2022/10/09 06:56:43;;;;;;;9.60;8.65;;;;;;;;;;5027284;28;20204;-64
2022/10/09 06:59:10;;;;;;;9.13;8.18;;;;;;;;;;5026145;28;20559;-64
2022/10/09 07:01:37;;;;;;;10.85;8.10;;;;;;;;;;5028651;28;20214;-65
2022/10/09 07:04:05;;;;;;;9.68;8.07;;;;;;;;;;5027169;28;20283;-64
2022/10/09 07:06:33;;;;;;;9.25;8.45;;;;;;;;;;5028849;28;20230;-63
2022/10/09 07:09:03;;;;;;;8.77;7.53;;;;;;;;;;5027564;28;20260;-64
2022/10/09 07:11:31;;;;;;;12.20;8.10;;;;;;;;;;5027601;28;20210;-66
2022/10/09 07:13:58;;;;;;;9.07;7.88;;;;;;;;;;5029189;28;20233;-64
2022/10/09 07:16:26;;;;;;;8.95;7.95;;;;;;;;;;5028479;28;20264;-64
2022/10/09 07:18:52;;;;;;;9.48;8.57;;;;;;;;;;5028032;28;20668;-62
2022/10/09 07:21:19;;;;;;;10.15;9.05;;;;;;;;;;5028453;28;20222;-65
2022/10/09 07:23:46;;;;;;;12.25;8.68;;;;;;;;;;5028614;28;20298;-64
2022/10/09 07:26:14;;;;;;;9.38;8.10;;;;;;;;;;5027691;28;20358;-64
2022/10/09 07:28:41;;;;;;;10.50;8.38;;;;;;;;;;5024900;28;20214;-64
2022/10/09 07:31:08;;;;;;;17.95;8.63;;;;;;;;;;5028600;28;20194;-64
2022/10/09 07:33:35;;;;;;;9.18;7.78;;;;;;;20.97;nan;95676.97;5028390;28;20719;-65
2022/10/09 07:36:02;;;;;;;9.88;7.07;;;;;;;;;;5027120;28;20314;-63
2022/10/09 07:38:29;;;;;;;8.00;7.15;;;;;;;;;;5026620;28;20593;-65
2022/10/09 07:40:59;;;;;;;8.13;7.40;;;;;;;;;;5028969;28;20587;-65
2022/10/09 07:43:27;;;;;;;7.68;6.97;;;;;;;;;;5028180;28;20881;-64
2022/10/09 07:45:53;;;;;;;10.02;7.18;;;;;;;;;;5028596;28;20214;-64
2022/10/09 07:48:20;;;;;;;8.20;7.43;;;;;;;;;;5027928;28;20210;-64
2022/10/09 07:50:46;;;;;;;13.85;9.45;;;;;;;;;;5028741;28;20287;-64
2022/10/09 07:53:13;;;;;;;12.32;9.30;;;;;;;;;;5027816;28;20702;-63
2022/10/09 07:55:45;;;;;;;17.75;8.50;;;;;;;31.76;nan;95622.09;5026683;28;20210;-63
2022/10/09 07:58:11;;;;;;;14.95;12.00;;;;;;;;;;5029293;28;20585;-65
2022/10/09 08:00:39;;;;;;;12.40;10.35;;;;;;;;;;5029090;28;20210;-63
2022/10/09 08:03:06;;;;;;;9.25;8.35;;;;;;;;;;5028863;28;20324;-64
2022/10/09 08:05:32;;;;;;;60.70;39.30;;;;;;;;;;5027168;28;20212;-63
2022/10/09 08:07:59;;;;;;;13.40;11.20;;;;;;;;;;5029986;28;20230;-66
2022/10/09 08:10:25;;;;;;;10.60;8.77;;;;;;;;;;5028808;28;20218;-62
2022/10/09 08:12:52;;;;;;;17.55;12.75;;;;;;;;;;5027365;28;20288;-64
2022/10/09 08:15:19;;;;;;;11.52;9.50;;;;;;;;;;5026690;28;20638;-63
2022/10/09 08:17:47;;;;;;;12.63;9.25;;;;;;;;;;5027195;28;20190;-62
2022/10/09 08:20:13;;;;;;;15.80;9.73;;;;;;;;;;5026446;28;20217;-64
2022/10/09 08:22:40;;;;;;;13.15;9.25;;;;;;;;;;5026007;28;20966;-62
2022/10/09 08:25:07;;;;;;;18.42;13.02;;;;;;;;;;5026868;28;20267;-66
2022/10/09 08:27:34;;;;;;;18.73;12.00;;;;;;;;;;5027543;28;20372;-66
2022/10/09 08:30:00;;;;;;;10.38;7.95;;;;;;;;;;5027702;28;20244;-65
2022/10/09 08:32:27;;;;;;;11.63;7.93;;;;;;;;;;5029405;28;20249;-65
2022/10/09 08:34:54;;;;;;;9.80;8.90;;;;;;;;;;5025864;28;20206;-64
2022/10/09 08:37:21;;;;;;;12.40;8.18;;;;;;;;;;5027324;28;20240;-62
2022/10/09 08:39:47;;;;;;;11.38;10.20;;;;;;;;;;5026601;28;20210;-64
2022/10/09 08:42:20;;;;;;;7.88;6.65;;;;;;;;;;5029091;28;21996;-65
2022/10/09 08:44:48;;;;;;;7.55;5.75;;;;;;;;;;5025458;28;20904;-64
2022/10/09 08:47:18;;;;;;;5.75;5.25;;;;;;;;;;5029149;28;20228;-67
2022/10/09 08:49:47;;;;;;;8.27;5.72;;;;;;;;;;5026763;28;20941;-64
2022/10/09 08:52:19;;;;;;;6.05;5.55;;;;;;;;;;5026370;28;20298;-64
2022/10/09 08:54:45;;;;;;;22.85;14.23;;;;;;;;;;5026318;28;20884;-64
2022/10/09 08:57:13;;;;;;;9.65;7.30;;;;;;;;;;5025152;28;20275;-63
2022/10/09 08:59:40;;;;;;;5.47;5.07;;;;;;;;;;5027168;28;22366;-62
2022/10/09 09:02:14;;;;;;;7.63;5.28;;;;;;;;;;5026661;28;20725;-63
2022/10/09 09:04:46;;;;;;;5.20;4.78;;;;;;;;;;5025928;28;20217;-64
2022/10/09 09:07:19;;;;;;;6.95;4.70;;;;;;;;;;5026877;28;20233;-69
2022/10/09 09:09:52;;;;;;;6.93;4.60;;;;;;;;;;5025802;28;20259;-64
2022/10/09 09:12:21;;;;;;;4.43;4.03;;;;;;;;;;5026934;28;21009;-62
2022/10/09 09:14:54;;;;;;;4.68;4.05;;;;;;;;;;5027918;28;20919;-63
2022/10/09 09:17:26;;;;;;;7.68;4.75;;;;;;;;;;5028446;28;20625;-64
2022/10/09 09:20:02;;;;;;;4.22;3.83;;;;;;;;;;5030044;28;20206;-64
2022/10/09 09:22:30;;;;;;;5.25;4.75;;;;;;;;;;5027480;28;20216;-64
2022/10/09 09:24:59;;;;;;;5.68;3.63;;;;;;;;;;5028721;28;20222;-62
2022/10/09 09:27:27;;;;;;;8.90;5.90;;;;;;;;;;5028097;28;20677;-66
2022/10/09 09:29:55;;;;;;;10.80;6.82;;;;;;;;;;5027045;28;20217;-64
2022/10/09 09:32:23;;;;;;;8.75;7.85;;;;;;;;;;5032371;28;20237;-65
2022/10/09 09:34:50;;;;;;;7.25;6.50;;;;;;;;;;5029814;28;20977;-63
2022/10/09 09:37:16;;;;;;;13.48;8.00;;;;;;;;;;5030813;28;20199;-67
2022/10/09 09:39:43;;;;;;;8.15;5.40;;;;;;;;;;5027941;28;20268;-67
2022/10/09 09:42:15;;;;;;;5.25;4.85;;;;;;;;;;5028782;28;20294;-67
2022/10/09 09:44:44;;;;;;;4.68;4.05;;;;;;;;;;5027758;28;20251;-63
2022/10/09 09:47:14;;;;;;;5.53;3.78;;;;;;;;;;5026704;28;20230;-65
2022/10/09 09:49:52;;;;;;;7.35;3.70;;;;;;;;;;5028344;28;20282;-64
2022/10/09 09:52:18;;;;;;;3.35;3.15;;;;;;;;;;5029021;28;20198;-64
2022/10/09 09:54:47;;;;;;;12.07;3.92;;;;;;;;;;5028075;28;20211;-63
2022/10/09 09:57:22;;;;;;;6.18;4.20;;;;;;;;;;5031079;28;20203;-64
2022/10/09 09:59:49;;;;;;;5.57;5.18;;;;;;;;;;5028115;28;20259;-63
2022/10/09 10:02:17;;;;;;;6.22;4.32;;;;;;;;;;5029062;28;20673;-63
2022/10/09 10:04:51;;;;;;;18.50;11.90;;;;;;;;;;5028738;28;20750;-62
2022/10/09 10:07:27;;;;;;;22.13;14.30;;;;;;;;;;5028031;28;20237;-62
2022/10/09 10:10:01;;;;;;;24.25;16.40;;;;;;;;;;5028445;28;20234;-65
2022/10/09 10:12:29;;;;;;;8.18;5.50;;;;;;;;;;5028662;28;20941;-64
2022/10/09 10:14:56;;;;;;;9.00;8.18;;;;;;;;;;5029456;28;20206;-60
2022/10/09 10:17:26;;;;;;;30.13;14.25;;;;;;;;;;5029563;28;20207;-64
2022/10/09 10:19:52;;;;;;;11.20;8.98;;;;;;;;;;5027938;28;20263;-63
2022/10/09 10:22:23;;;;;;;10.82;5.45;;;;;;;;;;5028950;28;20757;-63
2022/10/09 10:24:51;;;;;;;13.18;4.43;;;;;;;;;;5029077;28;20206;-64
2022/10/09 10:27:21;;;;;;;5.45;4.93;;;;;;;;;;5030210;28;20237;-66
2022/10/09 10:29:50;;;;;;;10.88;6.80;;;;;;;;;;5027314;28;20343;-63
2022/10/09 10:32:20;;;;;;;9.75;6.28;;;;;;;;;;5029315;28;20363;-63
2022/10/09 10:34:49;;;;;;;10.38;7.63;;;;;;;;;;5029189;28;20206;-64
2022/10/09 10:37:23;;;;;;;5.78;5.03;;;;;;;;;;5029319;28;20199;-63
2022/10/09 10:39:52;;;;;;;6.50;3.80;;;;;;;;;;5026631;28;20268;-63
2022/10/09 10:42:21;;;;;;;9.07;4.25;;;;;;;;;;5029246;28;20206;-63
2022/10/09 10:44:52;;;;;;;10.20;4.63;;;;;;;;;;5028269;28;20745;-63
2022/10/09 10:47:19;;;;;;;4.95;4.40;;;;;;;;;;5029181;28;21126;-63
2022/10/09 10:49:46;;;;;;;4.28;3.83;;;;;;;;;;5029971;28;20664;-64
2022/10/09 10:52:20;;;;;;;10.15;4.28;;;;;;;;;;5028054;28;20214;-65
2022/10/09 10:54:51;;;;;;;5.70;4.20;;;;;;;;;;5026222;28;20236;-64
2022/10/09 10:57:21;;;;;;;6.30;3.75;;;;;;;;;;5028118;28;21218;-65
2022/10/09 10:59:55;;;;;;;3.88;3.67;;;;;;;;;;5027173;28;20202;-67
2022/10/09 11:02:36;;;;;;;8.90;4.10;;;;;;;;;;5028301;28;20199;-62
2022/10/09 11:05:08;;;;;;;4.90;4.30;;;;;;;;;;5029656;28;20203;-63
2022/10/09 11:07:43;;;;;;;9.68;5.07;;;;;;;;;;5027894;28;20804;-64
2022/10/09 11:10:15;;;;;;;5.65;3.90;;;;;;;;;;5028281;28;20225;-68
2022/10/09 11:12:47;;;;;;;4.40;4.00;;;;;;;;;;5028252;28;22030;-64
2022/10/09 11:15:18;;;;;;;8.88;4.38;;;;;;;;;;5027398;28;20225;-64
2022/10/09 11:17:50;;;;;;;4.55;4.25;;;;;;;;;;5026761;28;20339;-68
2022/10/09 11:20:30;;;;;;;5.82;4.13;;;;;;;;;;5025025;28;20213;-64
2022/10/09 11:23:03;;;;;;;4.65;4.25;;;;;;;;;;5026392;28;20217;-65
2022/10/09 11:25:34;;;;;;;4.25;3.95;;;;;;;;;;5029154;28;20260;-65
2022/10/09 11:28:03;;;;;;;6.20;3.92;;;;;;;;;;5027643;28;20311;-65
2022/10/09 11:30:33;;;;;;;50.75;30.35;;;;;;;;;;5025774;28;20244;-62
2022/10/09 11:33:01;;;;;;;18.85;12.07;;;;;;;;;;5025676;28;20317;-63
2022/10/09 11:35:30;;;;;;;32.00;21.25;;;;;;;;;;5026735;28;20226;-65
2022/10/09 11:37:58;;;;;;;22.40;13.50;;;;;;;;;;5026739;28;20198;-63
2022/10/09 11:40:27;;;;;;;8.85;8.05;;;;;;;;;;5026850;28;20202;-63
2022/10/09 11:42:58;;;;;;;13.98;10.55;;;;;;;;;;5027379;28;20210;-62
2022/10/09 11:45:28;;;;;;;9.35;8.35;;;;;;;;;;5027843;28;20214;-64
2022/10/09 11:47:59;;;;;;;6.20;4.68;;;;;;;;;;5027733;28;20234;-65
2022/10/09 11:50:39;;;;;;;7.20;6.60;;;;;;;;;;5026060;28;20263;-64
2022/10/09 11:53:08;;;;;;;6.45;4.97;;;;;;;;;;5027266;28;20683;-64
2022/10/09 11:55:35;;;;;;;13.35;9.98;;;;;;;;;;5028904;28;20358;-65
2022/10/09 11:58:08;;;;;;;13.40;9.90;;;;;;;;;;5027992;28;20267;-66
2022/10/09 12:00:36;;;;;;;7.18;4.97;;;;;;;;;;5024954;28;20206;-65
2022/10/09 12:03:05;;;;;;;5.00;4.47;;;;;;;;;;5025140;28;20213;-65
2022/10/09 12:05:35;;;;;;;13.48;4.22;;;;;;;;;;5025686;28;20296;-66
2022/10/09 12:08:09;;;;;;;4.25;3.95;;;;;;;;;;5027535;28;20251;-65
2022/10/09 12:10:39;;;;;;;5.05;3.58;;;;;;;;;;5026432;28;20201;-64
2022/10/09 12:13:07;;;;;;;13.27;9.65;;;;;;;;;;5024358;28;20279;-66
2022/10/09 12:15:39;;;;;;;7.22;4.50;;;;;;;;;;5025955;28;21560;-64
2022/10/09 12:18:15;;;;;;;24.80;14.82;;;;;;;;;;5026519;28;20297;-66
2022/10/09 12:20:45;;;;;;;24.15;16.25;;;;;;;;;;5026339;28;20212;-66
2022/10/09 12:23:11;;;;;;;12.25;9.07;;;;;;;;;;5027722;28;20201;-65
2022/10/09 12:25:40;;;;;;;5.97;3.95;;;;;;;;;;5026940;28;20202;-63
2022/10/09 12:28:16;;;;;;;7.75;3.67;;;;;;;;;;5026881;28;20230;-65
2022/10/09 12:30:46;;;;;;;4.80;4.40;;;;;;;;;;5025478;28;20205;-64
2022/10/09 12:33:17;;;;;;;3.42;3.05;;;;;;;;;;5026544;28;20461;-66
2022/10/09 12:35:46;;;;;;;16.50;10.13;;;;;;;;;;5026264;28;20666;-65
2022/10/09 12:38:16;;;;;;;9.85;8.75;;;;;;;;;;5028434;28;20213;-66
2022/10/09 12:40:45;;;;;;;4.88;4.47;;;;;;;;;;5024662;28;20692;-65
2022/10/09 12:43:16;;;;;;;20.75;16.48;;;;;;;;;;5027384;28;20207;-66
2022/10/09 12:45:44;;;;;;;8.07;7.47;;;;;;;;;;5028113;28;20207;-64
2022/10/09 12:48:11;;;;;;;5.32;4.93;;;;;;;;;;5026539;28;20218;-64
2022/10/09 12:50:40;;;;;;;5.82;4.07;;;;;;;;;;5025140;28;21821;-65
2022/10/09 12:53:12;;;;;;;11.57;4.28;;;;;;;;;;5028777;28;20228;-66
2022/10/09 12:55:41;;;;;;;4.30;3.90;;;;;;;;;;5031160;28;20217;-63
2022/10/09 12:58:08;;;;;;;7.22;4.00;;;;;;;;;;5032338;28;20206;-64
2022/10/09 13:00:35;;;;;;;4.22;3.97;;;;;;;;;;5029917;28;20202;-64
2022/10/09 13:03:02;;;;;;;3.97;3.33;;;;;;;;;;5029822;28;20202;-65
2022/10/09 13:05:35;;;;;;;4.72;4.30;;;;;;;;;;5030386;28;20214;-64
2022/10/09 13:08:03;;;;;;;8.90;3.85;;;;;;;;;;5029925;28;20287;-64
2022/10/09 13:10:30;;;;;;;8.13;3.38;;;;;;;;;;5030007;28;20234;-64
2022/10/09 13:12:57;;;;;;;4.00;3.53;;;;;;;;;;5030525;28;20289;-63
2022/10/09 13:15:28;;;;;;;7.00;3.80;;;;;;;;;;5029402;28;20203;-66
2022/10/09 13:17:55;;;;;;;4.18;3.33;;;;;;;;;;5028513;28;21270;-64
2022/10/09 13:20:25;;;;;;;11.00;3.70;;;;;;;;;;5029382;28;20275;-64
2022/10/09 13:22:55;;;;;;;4.07;3.38;;;;;;;;;;5027555;28;20213;-64
2022/10/09 13:25:23;;;;;;;4.28;3.88;;;;;;;;;;5028301;28;20207;-64
2022/10/09 13:27:49;;;;;;;3.53;3.22;;;;;;;;;;5027982;28;20312;-64
2022/10/09 13:30:16;;;;;;;7.85;3.75;;;;;;;;;;5031073;28;20268;-64
2022/10/09 13:32:43;;;;;;;5.22;3.20;;;;;;;;;;5029843;28;20246;-66
2022/10/09 13:35:09;;;;;;;3.58;3.38;;;;;;;;;;5029238;28;20275;-67
2022/10/09 13:37:36;;;;;;;4.53;4.22;;;;;;;;;;5030061;28;20234;-67
2022/10/09 13:40:04;;;;;;;4.13;3.65;;;;;;;;;;5026739;28;22062;-64
2022/10/09 13:42:35;;;;;;;5.95;3.78;;;;;;;;;;5031400;28;20572;-64
2022/10/09 13:45:02;;;;;;;4.22;3.83;;;;;;;;;;5029620;28;21654;-64
2022/10/09 13:47:28;;;;;;;4.32;3.63;;;;;;;;;;5027806;28;20206;-64
2022/10/09 13:49:54;;;;;;;7.70;4.07;;;;;;;;;;5029412;28;20253;-64
2022/10/09 13:52:21;;;;;;;5.10;4.25;;;;;;;;;;5029750;28;20206;-64
2022/10/09 13:54:47;;;;;;;6.13;4.13;;;;;;;;;;5029259;28;20320;-65
2022/10/09 13:57:14;;;;;;;7.22;3.95;;;;;;;;;;5028714;28;21353;-64
2022/10/09 13:59:42;;;;;;;5.28;4.18;;;;;;;;;;5027797;28;20719;-65
2022/10/09 14:02:09;;;;;;;4.22;3.88;;;;;;;;;;5028485;28;20226;-64
2022/10/09 14:04:36;;;;;;;10.10;4.43;;;;;;;;;;5028258;28;20348;-64
2022/10/09 14:07:02;;;;;;;7.57;3.80;;;;;;;;;;5027202;28;20226;-65
2022/10/09 14:09:29;;;;;;;25.85;18.63;;;;;;;;;;5027974;28;20687;-63
2022/10/09 14:11:55;;;;;;;120.60;68.55;;;;;;;;;;5027327;28;20299;-62
2022/10/09 14:14:22;;;;;;;10.40;8.95;;;;;;;;;;5029055;28;20212;-63
2022/10/09 14:16:50;;;;;;;7.55;6.30;;;;;;;;;;5024919;28;20203;-63
2022/10/09 14:19:17;;;;;;;6.10;5.53;;;;;;;;;;5027801;28;20628;-66
2022/10/09 14:21:45;;;;;;;4.97;4.30;;;;;;;;;;5028129;28;20206;-70
2022/10/09 14:24:13;;;;;;;12.07;5.90;;;;;;;;;;5029810;28;20725;-67
2022/10/09 14:26:40;;;;;;;5.93;5.18;;;;;;;;;;5026990;28;20202;-66
2022/10/09 14:29:06;;;;;;;6.57;4.93;;;;;;;;;;5027571;28;20317;-68
2022/10/09 14:31:33;;;;;;;5.55;5.15;;;;;;;;;;5028712;28;20202;-67
2022/10/09 14:34:00;;;;;;;7.30;5.45;;;;;;;;;;5027550;28;20242;-67
2022/10/09 14:36:27;;;;;;;7.03;6.32;;;;;;;;;;5027721;28;20586;-66